createdAt,value
2022-09-15T00:00:43.672Z,100494.53
2022-09-15T00:02:46.062Z,100490.97
2022-09-15T00:04:47.576Z,100490.88
2022-09-15T00:06:49.264Z,100485.59
2022-09-15T00:08:50.725Z,100478.50
2022-09-15T00:10:55.607Z,100480.22
2022-09-15T00:12:57.046Z,100483.81
2022-09-15T00:14:58.715Z,100487.38
2022-09-15T00:17:00.245Z,100491.88
2022-09-15T00:19:01.930Z,100495.50
2022-09-15T00:21:08.420Z,100487.56
2022-09-15T00:23:11.128Z,100493.78
2022-09-15T00:25:13.192Z,100497.44
2022-09-15T00:27:16.022Z,100491.16
2022-09-15T00:29:17.470Z,100491.22
2022-09-15T00:31:21.548Z,100487.63
2022-09-15T00:33:23.275Z,100487.63
2022-09-15T00:35:24.747Z,100485.97
2022-09-15T00:37:26.231Z,100489.56
2022-09-15T00:39:27.979Z,100489.56
2022-09-15T00:41:30.097Z,100485.13
2022-09-15T00:43:45.626Z,100486.91
2022-09-15T00:45:48.424Z,100485.19
2022-09-15T00:47:49.998Z,100494.84
2022-09-15T00:49:59.177Z,100487.69
2022-09-15T00:52:07.242Z,100486.03
2022-09-15T00:54:15.245Z,100491.53
2022-09-15T00:56:18.632Z,100487.53
2022-09-15T00:58:36.875Z,100495.47
2022-09-15T01:00:44.099Z,100499.91
2022-09-15T01:02:48.231Z,100499.84
2022-09-15T01:04:57.458Z,100506.13
2022-09-15T01:07:03.840Z,100499.13
2022-09-15T01:09:16.797Z,100502.63
2022-09-15T01:11:18.417Z,100508.72
2022-09-15T01:13:19.889Z,100505.00
2022-09-15T01:15:25.781Z,100513.63
2022-09-15T01:17:40.405Z,100511.78
2022-09-15T01:20:06.583Z,100507.28
2022-09-15T01:22:45.089Z,100509.94
2022-09-15T01:25:01.738Z,100501.88
2022-09-15T01:27:41.208Z,100513.25
2022-09-15T01:30:06.421Z,100496.44
2022-09-15T01:33:05.787Z,100497.31
2022-09-15T01:35:24.980Z,100498.97
2022-09-15T01:37:32.531Z,100500.69
2022-09-15T01:39:40.035Z,100504.13
2022-09-15T01:41:49.461Z,100508.50
2022-09-15T01:43:59.956Z,100505.78
2022-09-15T01:46:03.195Z,100500.44
2022-09-15T01:48:07.744Z,100497.78
2022-09-15T01:50:15.317Z,100498.72
2022-09-15T01:52:19.364Z,100504.94
2022-09-15T01:54:26.490Z,100504.00
2022-09-15T01:56:28.000Z,100501.28
2022-09-15T01:58:29.573Z,100502.94
2022-09-15T02:00:38.881Z,100502.00
2022-09-15T02:02:52.695Z,100501.94
2022-09-15T02:05:06.048Z,100506.22
2022-09-15T02:07:44.916Z,100502.66
2022-09-15T02:10:02.812Z,100500.75
2022-09-15T02:12:10.916Z,100503.31
2022-09-15T02:14:44.799Z,100505.84
2022-09-15T02:16:49.726Z,100499.53
2022-09-15T02:19:03.471Z,100503.78
2022-09-15T02:21:12.110Z,100511.59
2022-09-15T02:23:35.308Z,100509.88
2022-09-15T02:25:44.010Z,100509.69
2022-09-15T02:27:47.889Z,100513.19
2022-09-15T02:29:52.770Z,100514.78
2022-09-15T02:31:57.430Z,100510.22
2022-09-15T02:34:03.243Z,100507.38
2022-09-15T02:36:05.876Z,100513.50
2022-09-15T02:38:09.942Z,100521.31
2022-09-15T02:40:11.517Z,100516.72
2022-09-15T02:42:21.765Z,100521.03
2022-09-15T02:44:23.393Z,100520.03
2022-09-15T02:46:24.878Z,100499.56
2022-09-15T02:48:26.422Z,100495.00
2022-09-15T02:50:27.929Z,100498.38
2022-09-15T02:52:29.454Z,100501.84
2022-09-15T02:54:30.938Z,100496.53
2022-09-15T02:56:32.367Z,100500.91
2022-09-15T02:58:34.818Z,100501.75
2022-09-15T03:00:38.536Z,100500.84
2022-09-15T03:02:41.844Z,100500.75
2022-09-15T03:04:43.279Z,100498.97
2022-09-15T03:06:44.836Z,100508.66
2022-09-15T03:08:52.542Z,100508.59
2022-09-15T03:10:57.334Z,100512.09
2022-09-15T03:12:58.869Z,100505.88
2022-09-15T03:15:00.290Z,100508.44
2022-09-15T03:17:02.742Z,100506.66
2022-09-15T03:19:04.489Z,100503.94
2022-09-15T03:21:11.384Z,100508.31
2022-09-15T03:23:12.954Z,100509.16
2022-09-15T03:25:14.435Z,100506.50
2022-09-15T03:27:15.873Z,100503.88
2022-09-15T03:29:17.357Z,100507.38
2022-09-15T03:31:19.905Z,100512.69
2022-09-15T03:33:22.759Z,100515.31
2022-09-15T03:35:24.211Z,100508.31
2022-09-15T03:37:26.081Z,100521.56
2022-09-15T03:39:27.554Z,100521.56
2022-09-15T03:41:29.324Z,100518.91
2022-09-15T03:43:32.098Z,100515.41
2022-09-15T03:45:33.589Z,100512.81
2022-09-15T03:47:35.056Z,100511.94
2022-09-15T03:49:36.529Z,100517.19
2022-09-15T03:51:38.185Z,100514.47
2022-09-15T03:53:41.831Z,100511.69
2022-09-15T03:55:45.351Z,100509.03
2022-09-15T03:57:46.793Z,100509.81
2022-09-15T03:59:48.283Z,100505.34
2022-09-15T04:01:50.952Z,100513.34
2022-09-15T04:03:52.445Z,100505.41
2022-09-15T04:05:53.858Z,100513.28
2022-09-15T04:07:55.311Z,100508.06
2022-09-15T04:09:57.244Z,100517.66
2022-09-15T04:11:58.698Z,100507.97
2022-09-15T04:14:00.290Z,100506.13
2022-09-15T04:16:03.882Z,100502.69
2022-09-15T04:18:05.480Z,100501.69
2022-09-15T04:20:07.749Z,100496.44
2022-09-15T04:22:13.151Z,100506.13
2022-09-15T04:24:17.181Z,100500.81
2022-09-15T04:26:24.771Z,100507.00
2022-09-15T04:28:27.648Z,100508.72
2022-09-15T04:30:29.112Z,100506.84
2022-09-15T04:32:31.389Z,100508.56
2022-09-15T04:34:32.825Z,100512.16
2022-09-15T04:36:34.277Z,100504.06
2022-09-15T04:38:36.171Z,100511.06
2022-09-15T04:40:38.197Z,100502.13
2022-09-15T04:42:39.714Z,100502.97
2022-09-15T04:44:41.344Z,100508.16
2022-09-15T04:46:42.809Z,100509.88
2022-09-15T04:48:46.056Z,100519.47
2022-09-15T04:50:47.626Z,100519.41
2022-09-15T04:52:49.068Z,100516.75
2022-09-15T04:54:50.542Z,100516.75
2022-09-15T04:56:51.971Z,100514.09
2022-09-15T04:59:00.891Z,100514.03
2022-09-15T05:01:19.129Z,100519.34
2022-09-15T05:03:20.692Z,100518.47
2022-09-15T05:05:22.505Z,100520.19
2022-09-15T05:07:23.940Z,100523.63
2022-09-15T05:09:26.475Z,100518.25
2022-09-15T05:11:28.390Z,100520.91
2022-09-15T05:13:29.933Z,100516.59
2022-09-15T05:15:31.412Z,100516.47
2022-09-15T05:17:33.441Z,100513.75
2022-09-15T05:19:34.968Z,100514.59
2022-09-15T05:21:36.532Z,100517.19
2022-09-15T05:23:38.427Z,100517.19
2022-09-15T05:25:39.919Z,100512.72
2022-09-15T05:27:41.385Z,100511.00
2022-09-15T05:29:43.102Z,100508.44
2022-09-15T05:31:44.600Z,100512.88
2022-09-15T05:33:47.914Z,100512.94
2022-09-15T05:35:57.825Z,100504.13
2022-09-15T05:37:59.263Z,100509.50
2022-09-15T05:40:03.165Z,100513.75
2022-09-15T05:42:06.965Z,100512.03
2022-09-15T05:44:10.192Z,100510.16
2022-09-15T05:46:12.967Z,100511.81
2022-09-15T05:48:14.436Z,100517.97
2022-09-15T05:50:16.257Z,100521.41
2022-09-15T05:52:17.721Z,100516.03
2022-09-15T05:54:19.187Z,100516.03
2022-09-15T05:56:20.812Z,100520.41
2022-09-15T05:58:22.357Z,100526.44
2022-09-15T06:00:24.642Z,100519.31
2022-09-15T06:02:26.159Z,100521.88
2022-09-15T06:04:27.676Z,100520.94
2022-09-15T06:06:31.737Z,100520.94
2022-09-15T06:08:36.986Z,100525.31
2022-09-15T06:10:39.434Z,100524.22
2022-09-15T06:12:40.908Z,100524.94
2022-09-15T06:14:44.438Z,100522.22
2022-09-15T06:16:45.920Z,100520.34
2022-09-15T06:18:49.620Z,100524.66
2022-09-15T06:20:51.051Z,100522.78
2022-09-15T06:22:56.549Z,100524.44
2022-09-15T06:24:57.973Z,100518.19
2022-09-15T06:26:59.519Z,100523.44
2022-09-15T06:29:02.879Z,100524.22
2022-09-15T06:31:04.640Z,100516.19
2022-09-15T06:33:06.102Z,100524.94
2022-09-15T06:35:07.838Z,100522.03
2022-09-15T06:37:09.416Z,100525.34
2022-09-15T06:39:10.950Z,100522.56
2022-09-15T06:41:13.402Z,100524.91
2022-09-15T06:43:14.839Z,100528.25
2022-09-15T06:45:16.374Z,100525.50
2022-09-15T06:47:17.967Z,100531.69
2022-09-15T06:49:19.998Z,100522.69
2022-09-15T06:51:23.538Z,100533.25
2022-09-15T06:53:24.993Z,100525.28
2022-09-15T06:55:26.421Z,100526.16
2022-09-15T06:57:28.403Z,100539.28
2022-09-15T06:59:29.878Z,100533.88
2022-09-15T07:01:32.283Z,100526.78
2022-09-15T07:03:34.216Z,100525.75
2022-09-15T07:05:35.727Z,100525.59
2022-09-15T07:07:37.185Z,100528.03
2022-09-15T07:09:41.145Z,100526.88
2022-09-15T07:11:43.039Z,100527.56
2022-09-15T07:13:44.498Z,100524.88
2022-09-15T07:15:59.996Z,100525.56
2022-09-15T07:18:01.495Z,100528.00
2022-09-15T07:20:03.498Z,100528.69
2022-09-15T07:22:05.112Z,100532.91
2022-09-15T07:24:07.794Z,100529.25
2022-09-15T07:26:10.773Z,100536.13
2022-09-15T07:28:12.737Z,100536.97
2022-09-15T07:30:14.233Z,100537.75
2022-09-15T07:32:15.668Z,100547.28
2022-09-15T07:34:17.363Z,100548.84
2022-09-15T07:36:19.226Z,100559.41
2022-09-15T07:38:20.658Z,100555.03
2022-09-15T07:40:22.259Z,100558.47
2022-09-15T07:42:23.870Z,100556.59
2022-09-15T07:44:25.379Z,100560.91
2022-09-15T07:46:31.421Z,100553.84
2022-09-15T07:48:33.344Z,100551.78
2022-09-15T07:50:34.800Z,100555.66
2022-09-15T07:52:36.213Z,100553.72
2022-09-15T07:54:37.709Z,100551.75
2022-09-15T07:56:39.152Z,100550.41
2022-09-15T07:58:40.732Z,100558.75
2022-09-15T08:00:42.207Z,100568.09
2022-09-15T08:02:43.665Z,100573.88
2022-09-15T08:04:45.242Z,100570.09
2022-09-15T08:06:46.702Z,100575.34
2022-09-15T08:08:49.091Z,100574.56
2022-09-15T08:10:50.524Z,100580.59
2022-09-15T08:12:52.824Z,100581.03
2022-09-15T08:14:54.322Z,100582.16
2022-09-15T08:16:55.772Z,100586.06
2022-09-15T08:18:57.255Z,100585.47
2022-09-15T08:20:58.876Z,100587.53
2022-09-15T08:23:00.617Z,100579.78
2022-09-15T08:25:02.101Z,100586.44
2022-09-15T08:27:04.613Z,100583.75
2022-09-15T08:29:06.054Z,100583.94
2022-09-15T08:31:13.967Z,100583.13
2022-09-15T08:33:15.708Z,100584.25
2022-09-15T08:35:17.664Z,100584.09
2022-09-15T08:37:19.123Z,100591.00
2022-09-15T08:39:20.658Z,100583.94
2022-09-15T08:41:24.385Z,100587.69
2022-09-15T08:43:29.158Z,100597.56
2022-09-15T08:45:41.919Z,100593.09
2022-09-15T08:47:47.548Z,100591.13
2022-09-15T08:49:51.876Z,100594.44
2022-09-15T08:51:58.157Z,100598.47
2022-09-15T08:54:07.323Z,100597.19
2022-09-15T08:56:17.137Z,100605.78
2022-09-15T08:58:24.469Z,100607.22
2022-09-15T09:00:26.892Z,100603.25
2022-09-15T09:02:48.242Z,100610.91
2022-09-15T09:05:30.115Z,100614.78
2022-09-15T09:07:40.853Z,100616.94
2022-09-15T09:09:51.747Z,100627.28
2022-09-15T09:12:18.261Z,100643.75
2022-09-15T09:14:41.449Z,100654.41
2022-09-15T09:16:57.399Z,100650.69
2022-09-15T09:19:20.813Z,100652.56
2022-09-15T09:21:27.696Z,100652.22
2022-09-15T09:23:32.435Z,100643.84
2022-09-15T09:25:36.106Z,100646.56
2022-09-15T09:27:38.893Z,100645.47
2022-09-15T09:29:49.376Z,100645.00
2022-09-15T09:31:54.824Z,100637.94
2022-09-15T09:34:15.598Z,100641.25
2022-09-15T09:36:17.318Z,100643.69
2022-09-15T09:38:28.322Z,100639.91
2022-09-15T09:40:32.762Z,100639.59
2022-09-15T09:42:38.105Z,100642.03
2022-09-15T09:44:40.602Z,100640.94
2022-09-15T09:46:42.392Z,100639.06
2022-09-15T09:49:10.396Z,100637.25
2022-09-15T09:51:39.782Z,100631.31
2022-09-15T09:53:42.386Z,100637.41
2022-09-15T09:55:45.839Z,100636.31
2022-09-15T09:57:47.314Z,100632.56
2022-09-15T09:59:50.500Z,100627.66
2022-09-15T10:02:10.861Z,100630.63
2022-09-15T10:04:17.994Z,100625.94
2022-09-15T10:06:22.225Z,100627.47
2022-09-15T10:08:23.740Z,100624.47
2022-09-15T10:10:28.803Z,100617.88
2022-09-15T10:12:49.535Z,100622.00
2022-09-15T10:14:54.320Z,100620.28
2022-09-15T10:17:07.695Z,100623.53
2022-09-15T10:19:14.049Z,100618.72
2022-09-15T10:21:15.974Z,100621.25
2022-09-15T10:23:17.608Z,100622.03
2022-09-15T10:25:19.186Z,100618.31
2022-09-15T10:27:27.539Z,100619.00
2022-09-15T10:29:39.071Z,100608.16
2022-09-15T10:31:41.523Z,100603.38
2022-09-15T10:33:47.825Z,100604.47
2022-09-15T10:35:49.579Z,100606.78
2022-09-15T10:38:12.075Z,100605.66
2022-09-15T10:40:33.628Z,100599.28
2022-09-15T10:42:50.310Z,100600.59
2022-09-15T10:45:08.853Z,100608.22
2022-09-15T10:47:12.906Z,100602.34
2022-09-15T10:49:14.295Z,100601.44
2022-09-15T10:51:31.056Z,100604.75
2022-09-15T10:54:03.269Z,100601.19
2022-09-15T10:56:24.136Z,100602.84
2022-09-15T10:58:52.998Z,100601.00
2022-09-15T11:01:03.329Z,100594.75
2022-09-15T11:03:16.733Z,100590.22
2022-09-15T11:05:42.525Z,100592.13
2022-09-15T11:08:20.754Z,100587.72
2022-09-15T11:10:32.654Z,100597.91
2022-09-15T11:12:34.034Z,100597.75
2022-09-15T11:15:07.216Z,100600.75
2022-09-15T11:17:55.019Z,100606.75
2022-09-15T11:20:25.344Z,100605.81
2022-09-15T11:22:38.585Z,100623.72
2022-09-15T11:25:22.157Z,100643.00
2022-09-15T11:27:31.356Z,100655.75
2022-09-15T11:30:03.231Z,100655.66
2022-09-15T11:32:13.493Z,100652.81
2022-09-15T11:34:44.124Z,100651.84
2022-09-15T11:37:09.091Z,100649.75
2022-09-15T11:39:22.437Z,100646.75
2022-09-15T11:41:36.095Z,100636.59
2022-09-15T11:43:46.071Z,100639.88
2022-09-15T11:45:54.597Z,100643.09
2022-09-15T11:48:06.862Z,100643.00
2022-09-15T11:50:11.292Z,100642.06
2022-09-15T11:52:26.864Z,100641.44
2022-09-15T11:54:41.801Z,100641.75
2022-09-15T11:56:47.511Z,100642.63
2022-09-15T11:59:27.580Z,100644.25
2022-09-15T12:01:59.572Z,100642.78
2022-09-15T12:04:30.512Z,100639.34
2022-09-15T12:06:35.165Z,100643.00
2022-09-15T12:08:44.235Z,100637.19
2022-09-15T12:10:52.303Z,100637.25
2022-09-15T12:12:54.038Z,100642.66
2022-09-15T12:14:56.587Z,100632.44
2022-09-15T12:16:59.074Z,100631.06
2022-09-15T12:19:12.743Z,100639.56
2022-09-15T12:21:34.169Z,100633.81
2022-09-15T12:23:44.633Z,100640.59
2022-09-15T12:26:34.464Z,100631.91
2022-09-15T12:28:42.438Z,100631.06
2022-09-15T12:30:44.019Z,100630.53
2022-09-15T12:32:45.505Z,100617.22
2022-09-15T12:34:59.226Z,100616.94
2022-09-15T12:37:11.538Z,100615.97
2022-09-15T12:39:18.865Z,100619.94
2022-09-15T12:41:20.341Z,100624.00
2022-09-15T12:43:23.525Z,100622.09
2022-09-15T12:45:29.289Z,100629.34
2022-09-15T12:47:38.831Z,100633.72
2022-09-15T12:49:45.457Z,100643.59
2022-09-15T12:51:50.819Z,100650.16
2022-09-15T12:53:59.611Z,100644.50
2022-09-15T12:56:05.469Z,100649.13
2022-09-15T12:58:18.536Z,100653.59
2022-09-15T13:00:23.353Z,100654.13
2022-09-15T13:02:57.497Z,100652.56
2022-09-15T13:04:58.990Z,100664.50
2022-09-15T13:07:15.667Z,100655.97
2022-09-15T13:09:28.227Z,100647.28
2022-09-15T13:11:38.739Z,100645.81
2022-09-15T13:13:47.448Z,100642.81
2022-09-15T13:15:50.759Z,100633.09
2022-09-15T13:17:52.718Z,100636.63
2022-09-15T13:19:59.797Z,100639.22
2022-09-15T13:22:27.149Z,100647.44
2022-09-15T13:24:46.549Z,100644.00
2022-09-15T13:26:54.650Z,100661.34
2022-09-15T13:28:57.946Z,100674.09
2022-09-15T13:31:10.804Z,100672.50
2022-09-15T13:39:05.363Z,100662.09
2022-09-15T13:41:28.472Z,100665.47
2022-09-15T13:43:45.376Z,100655.41
2022-09-15T13:46:19.191Z,100656.66
2022-09-15T13:48:32.564Z,100649.94
2022-09-15T13:50:40.377Z,100645.06
2022-09-15T13:52:41.740Z,100643.97
2022-09-15T13:55:12.317Z,100647.38
2022-09-15T13:57:14.354Z,100645.28
2022-09-15T13:59:24.663Z,100640.66
2022-09-15T14:01:26.869Z,100639.47
2022-09-15T14:03:43.534Z,100645.41
2022-09-15T14:05:45.548Z,100644.13
2022-09-15T14:07:59.124Z,100643.81
2022-09-15T14:10:02.867Z,100643.19
2022-09-15T14:12:14.950Z,100642.41
2022-09-15T14:14:28.455Z,100642.75
2022-09-15T14:16:36.864Z,100637.41
2022-09-15T14:18:44.305Z,100640.09
2022-09-15T14:20:58.352Z,100639.16
2022-09-15T14:23:00.484Z,100641.88
2022-09-15T14:25:16.602Z,100648.31
2022-09-15T14:27:24.807Z,100642.06
2022-09-15T14:29:27.140Z,100649.19
2022-09-15T14:31:35.632Z,100649.34
2022-09-15T14:33:40.394Z,100653.09
2022-09-15T14:35:42.005Z,100657.06
2022-09-15T14:37:49.387Z,100656.34
2022-09-15T14:40:00.216Z,100654.69
2022-09-15T14:42:21.151Z,100656.50
2022-09-15T14:46:59.117Z,100649.16
2022-09-15T14:49:14.072Z,100652.59
2022-09-15T14:51:25.108Z,100653.34
2022-09-15T14:53:28.164Z,100652.47
2022-09-15T14:56:04.322Z,100652.56
2022-09-15T14:58:29.392Z,100651.09
2022-09-15T15:00:52.565Z,100652.81
2022-09-15T15:03:14.862Z,100656.41
2022-09-15T15:05:35.662Z,100651.88
2022-09-15T15:07:39.052Z,100650.88
2022-09-15T15:09:48.099Z,100646.22
2022-09-15T15:11:57.634Z,100646.22
2022-09-15T15:13:59.734Z,100646.91
2022-09-15T15:16:01.433Z,100649.25
2022-09-15T15:18:05.996Z,100648.22
2022-09-15T15:20:10.403Z,100643.59
2022-09-15T15:22:11.907Z,100647.81
2022-09-15T15:24:13.337Z,100645.09
2022-09-15T15:26:29.798Z,100651.34
2022-09-15T15:28:37.108Z,100657.53
2022-09-15T15:30:46.785Z,100654.00
2022-09-15T15:32:48.284Z,100654.78
2022-09-15T15:34:55.907Z,100657.44
2022-09-15T15:37:06.470Z,100662.06
2022-09-15T15:39:19.181Z,100663.03
2022-09-15T15:41:24.591Z,100661.31
2022-09-15T15:43:27.206Z,100663.19
2022-09-15T15:45:31.335Z,100664.03
2022-09-15T15:47:36.810Z,100663.03
2022-09-15T15:49:46.298Z,100667.47
2022-09-15T15:51:59.497Z,100671.09
2022-09-15T15:54:00.961Z,100663.44
2022-09-15T15:56:02.636Z,100665.63
2022-09-15T15:58:05.094Z,100662.34
2022-09-15T16:00:47.815Z,100658.22
2022-09-15T16:02:51.070Z,100660.34
2022-09-15T16:04:52.650Z,100666.13
2022-09-15T16:06:54.167Z,100668.09
2022-09-15T16:08:58.254Z,100662.91
2022-09-15T16:11:03.036Z,100670.28
2022-09-15T16:13:04.534Z,100681.22
2022-09-15T16:15:15.782Z,100685.81
2022-09-15T16:17:17.199Z,100685.53
2022-09-15T16:19:18.629Z,100687.72
2022-09-15T16:21:36.860Z,100695.34
2022-09-15T16:23:38.601Z,100702.97
2022-09-15T16:25:49.099Z,100709.28
2022-09-15T16:27:50.610Z,100699.81
2022-09-15T16:29:52.090Z,100697.66
2022-09-15T16:31:53.771Z,100696.88
2022-09-15T16:33:55.222Z,100689.09
2022-09-15T16:36:08.355Z,100692.03
2022-09-15T16:38:09.857Z,100684.47
2022-09-15T16:40:11.419Z,100691.91
2022-09-15T16:42:12.913Z,100695.56
2022-09-15T16:44:19.836Z,100687.66
2022-09-15T16:46:21.708Z,100687.75
2022-09-15T16:48:23.258Z,100685.09
2022-09-15T16:50:25.230Z,100685.16
2022-09-15T16:52:26.648Z,100685.28
2022-09-15T16:54:28.140Z,100680.00
2022-09-15T16:56:29.589Z,100681.84
2022-09-15T16:58:31.215Z,100685.72
2022-09-15T17:00:37.287Z,100689.16
2022-09-15T17:02:38.830Z,100689.16
2022-09-15T17:04:40.288Z,100691.88
2022-09-15T17:06:42.281Z,100691.09
2022-09-15T17:08:44.505Z,100688.50
2022-09-15T17:10:47.104Z,100690.22
2022-09-15T17:12:49.038Z,100685.84
2022-09-15T17:14:50.468Z,100682.34
2022-09-15T17:16:52.953Z,100682.19
2022-09-15T17:18:54.387Z,100685.56
2022-09-15T17:20:56.813Z,100690.88
2022-09-15T17:22:58.309Z,100691.81
2022-09-15T17:25:00.922Z,100695.41
2022-09-15T17:27:02.350Z,100702.50
2022-09-15T17:29:03.816Z,100700.00
2022-09-15T17:31:07.164Z,100705.50
2022-09-15T17:33:13.502Z,100703.84
2022-09-15T17:35:17.212Z,100706.72
2022-09-15T17:37:18.659Z,100702.44
2022-09-15T17:39:21.139Z,100706.84
2022-09-15T17:41:22.841Z,100702.50
2022-09-15T17:43:26.608Z,100707.81
2022-09-15T17:45:32.389Z,100698.97
2022-09-15T17:47:34.221Z,100698.97
2022-09-15T17:49:35.641Z,100707.88
2022-09-15T17:51:37.086Z,100700.91
2022-09-15T17:53:38.698Z,100705.44
2022-09-15T17:55:40.690Z,100695.88
2022-09-15T17:57:42.207Z,100707.41
2022-09-15T17:59:43.620Z,100709.28
2022-09-15T18:01:45.227Z,100708.53
2022-09-15T18:03:46.832Z,100704.09
2022-09-15T18:05:48.636Z,100712.25
2022-09-15T18:07:51.710Z,100715.03
2022-09-15T18:09:53.188Z,100711.66
2022-09-15T18:14:00.938Z,100715.50
2022-09-15T18:16:10.136Z,100714.78
2022-09-15T18:18:21.193Z,100715.81
2022-09-15T18:20:25.056Z,100716.84
2022-09-15T18:22:26.479Z,100721.28
2022-09-15T18:24:28.487Z,100720.63
2022-09-15T18:26:30.063Z,100718.84
2022-09-15T18:28:31.598Z,100721.56
2022-09-15T18:30:40.681Z,100716.44
2022-09-15T18:32:42.441Z,100720.94
2022-09-15T18:34:43.930Z,100721.81
2022-09-15T18:36:45.360Z,100727.03
2022-09-15T18:38:46.820Z,100726.25
2022-09-15T18:40:53.168Z,100722.72
2022-09-15T18:42:56.481Z,100721.13
2022-09-15T18:44:57.937Z,100726.63
2022-09-15T18:47:00.121Z,100718.72
2022-09-15T18:49:03.017Z,100721.41
2022-09-15T18:51:08.236Z,100723.34
2022-09-15T18:53:10.321Z,100720.00
2022-09-15T18:55:15.224Z,100727.91
2022-09-15T18:57:16.843Z,100726.97
2022-09-15T18:59:18.346Z,100726.16
2022-09-15T19:01:20.434Z,100733.38
2022-09-15T19:03:21.938Z,100723.78
2022-09-15T19:05:23.808Z,100728.22
2022-09-15T19:07:28.393Z,100735.31
2022-09-15T19:09:30.555Z,100730.16
2022-09-15T19:11:32.060Z,100734.63
2022-09-15T19:13:35.577Z,100729.41
2022-09-15T19:15:39.505Z,100725.09
2022-09-15T19:17:41.971Z,100725.16
2022-09-15T19:19:43.503Z,100729.66
2022-09-15T19:21:44.976Z,100726.19
2022-09-15T19:23:46.417Z,100727.13
2022-09-15T19:25:47.832Z,100727.25
2022-09-15T19:27:49.301Z,100728.97
2022-09-15T19:29:50.776Z,100727.19
2022-09-15T19:31:52.210Z,100728.03
2022-09-15T19:33:53.737Z,100728.09
2022-09-15T19:36:05.231Z,100728.03
2022-09-15T19:38:16.648Z,100729.88
2022-09-15T19:40:18.213Z,100736.91
2022-09-15T19:42:19.717Z,100717.50
2022-09-15T19:44:21.182Z,100721.06
2022-09-15T19:46:24.966Z,100725.50
2022-09-15T19:48:26.913Z,100721.13
2022-09-15T19:50:28.435Z,100726.44
2022-09-15T19:52:29.872Z,100729.09
2022-09-15T19:54:31.330Z,100723.59
2022-09-15T19:56:32.989Z,100729.78
2022-09-15T19:58:34.442Z,100733.34
2022-09-15T20:00:35.868Z,100725.41
2022-09-15T20:02:37.484Z,100731.56
2022-09-15T20:04:40.132Z,100736.72
2022-09-15T20:06:42.098Z,100733.22
2022-09-15T20:08:45.531Z,100737.66
2022-09-15T20:10:48.548Z,100732.34
2022-09-15T20:12:50.006Z,100737.66
2022-09-15T20:14:51.858Z,100734.16
2022-09-15T20:16:55.147Z,100735.94
2022-09-15T20:18:58.938Z,100735.00
2022-09-15T20:21:03.336Z,100731.50
2022-09-15T20:23:05.102Z,100739.50
2022-09-15T20:25:06.778Z,100738.63
2022-09-15T20:27:08.918Z,100728.09
2022-09-15T20:29:10.787Z,100744.75
2022-09-15T20:31:16.084Z,100735.06
2022-09-15T20:33:17.571Z,100744.81
2022-09-15T20:35:19.003Z,100741.34
2022-09-15T20:37:22.227Z,100739.56
2022-09-15T20:39:24.327Z,100748.44
2022-09-15T20:41:27.224Z,100750.16
2022-09-15T20:43:28.718Z,100744.13
2022-09-15T20:45:32.831Z,100737.97
2022-09-15T20:47:37.955Z,100743.31
2022-09-15T20:49:39.412Z,100740.84
2022-09-15T20:51:40.972Z,100734.69
2022-09-15T20:53:47.880Z,100740.03
2022-09-15T20:55:50.429Z,100745.47
2022-09-15T20:57:51.888Z,100754.44
2022-09-15T20:59:53.335Z,100745.69
2022-09-15T21:01:54.940Z,100746.63
2022-09-15T21:03:56.496Z,100747.75
2022-09-15T21:06:00.422Z,100741.56
2022-09-15T21:08:02.102Z,100743.47
2022-09-15T21:10:03.643Z,100748.78
2022-09-15T21:12:05.790Z,100746.25
2022-09-15T21:14:07.552Z,100750.78
2022-09-15T21:16:11.866Z,100754.34
2022-09-15T21:18:13.349Z,100756.25
2022-09-15T21:20:15.166Z,100751.88
2022-09-15T21:22:16.585Z,100758.97
2022-09-15T21:24:18.017Z,100767.75
2022-09-15T21:26:21.660Z,100755.44
2022-09-15T21:28:23.148Z,100762.53
2022-09-15T21:30:24.581Z,100763.44
2022-09-15T21:32:26.033Z,100762.53
2022-09-15T21:34:28.453Z,100757.22
2022-09-15T21:36:31.142Z,100763.38
2022-09-15T21:38:37.373Z,100764.31
2022-09-15T21:40:38.789Z,100766.03
2022-09-15T21:42:40.193Z,100766.03
2022-09-15T21:44:41.720Z,100767.94
2022-09-15T21:46:44.861Z,100770.63
2022-09-15T21:48:47.461Z,100764.47
2022-09-15T21:50:52.954Z,100766.38
2022-09-15T21:52:54.717Z,100766.38
2022-09-15T21:54:56.154Z,100763.84
2022-09-15T21:56:58.037Z,100768.38
2022-09-15T21:59:01.589Z,100768.47
2022-09-15T22:01:20.938Z,100767.66
2022-09-15T22:03:22.448Z,100771.28
2022-09-15T22:05:23.878Z,100771.44
2022-09-15T22:07:25.345Z,100769.66
2022-09-15T22:09:26.758Z,100770.56
2022-09-15T22:11:28.723Z,100765.34
2022-09-15T22:13:30.231Z,100778.56
2022-09-15T22:15:32.446Z,100778.66
2022-09-15T22:17:33.889Z,100770.84
2022-09-15T22:19:35.399Z,100780.66
2022-09-15T22:21:41.488Z,100779.00
2022-09-15T22:23:44.331Z,100776.41
2022-09-15T22:25:45.810Z,100777.38
2022-09-15T22:27:47.254Z,100780.94
2022-09-15T22:29:48.766Z,100776.63
2022-09-15T22:31:50.302Z,100776.63
2022-09-15T22:33:52.641Z,100777.53
2022-09-15T22:35:54.474Z,100772.28
2022-09-15T22:37:55.931Z,100781.16
2022-09-15T22:39:59.289Z,100780.28
2022-09-15T22:42:00.996Z,100775.91
2022-09-15T22:44:03.536Z,100776.78
2022-09-15T22:46:06.032Z,100776.78
2022-09-15T22:48:07.624Z,100768.91
2022-09-15T22:50:09.265Z,100775.00
2022-09-15T22:52:11.003Z,100767.13
2022-09-15T22:54:12.485Z,100775.91
2022-09-15T22:56:19.704Z,100774.16
2022-09-15T22:58:21.270Z,100769.78
2022-09-15T23:00:23.358Z,100770.69
2022-09-15T23:02:24.890Z,100772.47
2022-09-15T23:04:26.510Z,100768.97
2022-09-15T23:06:31.085Z,100776.03
2022-09-15T23:08:33.743Z,100769.88
2022-09-15T23:10:35.232Z,100769.88
2022-09-15T23:12:36.665Z,100766.38
2022-09-15T23:14:38.133Z,100769.88
2022-09-15T23:16:40.089Z,100764.66
2022-09-15T23:18:41.733Z,100773.47
2022-09-15T23:20:44.754Z,100762.88
2022-09-15T23:22:46.233Z,100765.53
2022-09-15T23:24:48.056Z,100768.22
2022-09-15T23:26:49.651Z,100769.16
2022-09-15T23:28:51.191Z,100763.84
2022-09-15T23:30:54.513Z,100758.56
2022-09-15T23:32:56.006Z,100767.41
2022-09-15T23:34:57.455Z,100763.03
2022-09-15T23:36:59.032Z,100759.59
2022-09-15T23:39:00.502Z,100752.56
2022-09-15T23:41:02.091Z,100756.13
2022-09-15T23:43:03.536Z,100754.41
2022-09-15T23:45:05.557Z,100757.03
2022-09-15T23:47:07.134Z,100758.88
2022-09-15T23:49:08.707Z,100751.88
2022-09-15T23:51:10.301Z,100758.97
2022-09-15T23:53:12.379Z,100753.75
2022-09-15T23:55:13.854Z,100754.59
2022-09-15T23:57:15.289Z,100753.81
2022-09-15T23:59:16.755Z,100759.09
